»·PEaware :: N939MA KSBA-KBUR

N939MA :: KSBA-KBUR

FLIGHT INFORMATION

Flight Status: Arrived
Operator: Privately registered:
United States
More flights under this callsign
Pilot: Lary E. (11379)
Aircraft: CESSNA 172 SKYHAWK
(C172)
More flights by this aircraft type
Origin: KSBA Santa Barbara Mun
United States
Destination: KBUR Bob Hope-Burbank
United States
More flights between these airports :: More routes between these airports
Route: +KSBA FIM KBUR
File this flight plan on PilotEdge
Remarks:
Altitude:
(Current/Filed)
7,500ft
Speed:
(Current/Filed)
110kts
Departed: 07-Oct-18 02:59 PM
Arrived: 07-Oct-18 03:45 PM
Distance/Time
Traveled:
74nm/0:45
Distance/Time
To Go:
Arrived

Flight Plot

Page will automatically refresh every two minutes.


Map Options




Map Legend


Flown Route
Filed Route
Departure Airport
Arrival Airport
Navaid (VOR, NDB)
Fix

Horizontal Profiles

Position Reports

Time Latitude Longitude Heading Altitude Ground
Speed
07-Oct-18 14:44 34.425815 -119.836718 189 10ft 0kts
07-Oct-18 14:45 34.425815 -119.836718 189 10ft 0kts
07-Oct-18 14:46 34.425815 -119.836718 189 10ft 0kts
07-Oct-18 14:47 34.425815 -119.836718 189 10ft 0kts
07-Oct-18 14:48 34.425885 -119.836663 286 10ft 8kts
07-Oct-18 14:49 34.427676 -119.838649 343 12ft 13kts
07-Oct-18 14:50 34.428885 -119.839218 297 14ft 0kts
07-Oct-18 14:51 34.428885 -119.839218 297 14ft 0kts
07-Oct-18 14:52 34.425815 -119.836718 189 10ft 0kts
07-Oct-18 14:53 34.425815 -119.836718 189 10ft 0kts
07-Oct-18 14:54 34.425815 -119.836718 189 10ft 0kts
07-Oct-18 14:55 34.425815 -119.836718 189 10ft 0kts
07-Oct-18 14:56 34.425815 -119.836718 189 10ft 0kts
07-Oct-18 14:57 34.425853 -119.836517 335 10ft 6kts
07-Oct-18 14:58 34.427785 -119.838696 344 13ft 11kts
07-Oct-18 14:59 34.430592 -119.839688 300 14ft 0kts
07-Oct-18 15:00 34.430626 -119.839775 286 14ft 6kts
07-Oct-18 15:01 34.417113 -119.833948 157 677ft 75kts
07-Oct-18 15:02 34.396541 -119.826434 161 1543ft 98kts
07-Oct-18 15:03 34.368483 -119.811119 145 1505ft 111kts
07-Oct-18 15:04 34.344078 -119.789202 141 1516ft 112kts
07-Oct-18 15:05 34.321782 -119.764924 116 1895ft 93kts
07-Oct-18 15:06 34.327004 -119.740212 15 3010ft 81kts
07-Oct-18 15:07 34.344396 -119.724486 61 3965ft 86kts
07-Oct-18 15:08 34.354206 -119.698187 63 4877ft 87kts
07-Oct-18 15:09 34.364244 -119.671699 60 5740ft 87kts
07-Oct-18 15:10 34.377947 -119.647252 58 6534ft 90kts
07-Oct-18 15:11 34.388995 -119.620362 63 7325ft 90kts
07-Oct-18 15:12 34.400809 -119.588473 67 7586ft 116kts
07-Oct-18 15:13 34.410687 -119.550679 80 7701ft 119kts
07-Oct-18 15:14 34.413728 -119.509620 94 7644ft 125kts
07-Oct-18 15:15 34.409226 -119.468756 99 7682ft 121kts
07-Oct-18 15:16 34.401371 -119.428441 105 7621ft 120kts
07-Oct-18 15:17 34.392042 -119.389078 100 7553ft 122kts
07-Oct-18 15:18 34.387616 -119.349762 96 7589ft 120kts
07-Oct-18 15:19 34.383557 -119.311325 94 7564ft 121kts
07-Oct-18 15:20 34.381142 -119.270910 93 7588ft 118kts
07-Oct-18 15:21 34.380156 -119.231172 90 7636ft 118kts
07-Oct-18 15:22 34.379052 -119.191283 93 7686ft 118kts
07-Oct-18 15:23 34.375454 -119.151386 98 7698ft 119kts
07-Oct-18 15:24 34.370963 -119.111569 95 7721ft 119kts
07-Oct-18 15:25 34.366987 -119.071652 99 7723ft 120kts
07-Oct-18 15:26 34.363601 -119.031211 90 7679ft 122kts
07-Oct-18 15:27 34.361693 -118.990345 98 7595ft 125kts
07-Oct-18 15:28 34.358289 -118.948675 92 7491ft 123kts
07-Oct-18 15:29 34.357606 -118.908900 90 7609ft 116kts
07-Oct-18 15:30 34.355585 -118.870096 109 7691ft 118kts
07-Oct-18 15:31 34.342442 -118.832505 113 7617ft 122kts
07-Oct-18 15:32 34.329476 -118.794584 109 7565ft 122kts
07-Oct-18 15:33 34.318249 -118.756315 110 7443ft 115kts
07-Oct-18 15:34 34.306124 -118.722308 114 7118ft 110kts
07-Oct-18 15:35 34.295677 -118.688055 107 6884ft 112kts
07-Oct-18 15:36 34.286708 -118.651898 106 6565ft 112kts
07-Oct-18 15:37 34.276437 -118.616451 110 6014ft 111kts
07-Oct-18 15:38 34.266763 -118.581876 107 5390ft 110kts
07-Oct-18 15:39 34.255463 -118.548611 110 4656ft 100kts
07-Oct-18 15:40 34.244471 -118.518634 115 3799ft 105kts
07-Oct-18 15:41 34.232550 -118.489774 119 3311ft 90kts
07-Oct-18 15:42 34.220173 -118.466560 129 3188ft 84kts
07-Oct-18 15:43 34.207586 -118.445709 121 2709ft 71kts
07-Oct-18 15:44 34.200649 -118.424818 102 1975ft 66kts
07-Oct-18 15:45 34.198387 -118.402864 93 1452ft 68kts
07-Oct-18 15:46 34.198172 -118.381090 91 1022ft 63kts
07-Oct-18 15:47 34.197998 -118.365068 56 722ft 4kts
07-Oct-18 15:48 34.198584 -118.364628 8 723ft 0kts
07-Oct-18 15:49 34.198584 -118.364628 8 723ft 0kts
07-Oct-18 15:50 34.199371 -118.363581 1 724ft 9kts
07-Oct-18 15:51 34.199544 -118.363576 357 725ft 0kts
07-Oct-18 15:52 34.199544 -118.363576 357 725ft 0kts
07-Oct-18 15:53 34.199544 -118.363576 357 725ft 0kts
07-Oct-18 15:54 34.199544 -118.363576 357 725ft 0kts
07-Oct-18 15:55 34.199544 -118.363576 357 725ft 0kts
07-Oct-18 15:56 34.199544 -118.363576 357 725ft 0kts
07-Oct-18 15:57 34.199544 -118.363576 357 725ft 0kts
07-Oct-18 15:58 34.199544 -118.363576 357 725ft 0kts

Navigation Log

Ident Type
1. KSBA Airport
2. FIM Navaid
3. KBUR Airport